Tiempo atmosférico en la estación meteorológica de La Póveda de Soria, Barriomartín, Soria (1260 m.)



Fecha
DESCASC
Temp. máxima en grados centígrados (hora)
DESCASC
Temp. mínima en grados centígrados (hora)
DESCASC
Temp. media en grados centígrados
DESCASC
Racha de viento máxima en m/sg (hora)
DESCASC
Velocidad máxima media en intervalos de 10 minutos(hora)
DESCASC
Precipitaciones diarias en mm
DESCASC
Precipitaciones de 00:00 a 06:00 en mm
DESCASC
Precipitaciones de 06:00 a 12:00 en mm
DESCASC
Precipitaciones de 12:00 a 18:00 en mm
DESCASC
Precipitaciones de 18:00 a 24:00 en mm
DESCASC
14-12-2019 9.4 (14:30) 0.2 (08:50) 4.8 14.44 (23:20) 8.61 (23:20) 0 0 0 0 0
13-12-2019 12.4 (15:00) 6 (23:59) 9.2 17.78 (05:20) 10 (05:30) 0.6 0.6 0 0 0
12-12-2019 8.1 (23:59) -1.3 (01:20) 3.4 11.67 (23:50) 6.67 (20:50) 2.6 0 0 2 0.6
11-12-2019 5.4 (09:30) -1.1 (-00:0) 2.2 12.22 (13:40) 7.78 (13:40) 0.4 0 0.2 0.2 0
10-12-2019 12.7 (13:40) -2.3 (08:40) 5.2 7.5 (04:20) 5.28 (04:20) 0 0 0 0 0
09-12-2019 6.6 (12:50) -4.2 (06:40) 1.2 18.89 (14:20) 11.67 (14:20) 0 0 0 0 0
08-12-2019 7.3 (19:40) -1.4 (-00:0) 3 9.72 (20:00) 5.83 (20:00) 2 0 0 1.4 0.6
07-12-2019 11.7 (14:20) -0.6 (-00:0) 5.5 4.17 (14:30) 3.06 (20:50) 0.2 0 0.2 0 0
06-12-2019 9.3 (15:00) -1.3 (-00:0) 4 3.89 (15:20) 2.78 (23:50) 0 0 0 0 0
05-12-2019 5.4 (12:10) -0.3 (00:00) 2.6 12.22 (01:20) 7.22 (01:10) 0 0 0 0 0
04-12-2019 8 (13:30) -1.2 (00:00) 3.4 14.17 (23:10) 9.44 (23:00) 0 0 0 0 0
03-12-2019 4.6 (14:00) -1.8 (-00:0) 1.4 11.39 (04:30) 7.22 (04:30) 0 0 0 0 0
02-12-2019 4.2 (12:50) -1.2 (-00:0) 1.5 15.28 (04:10) 9.17 (10:00) 0 0 0 0 0
01-12-2019 5.5 (15:10) -0.2 (00:00) 2.6 8.89 (23:00) 5 (23:00) 0.4 0 0 0.2 0.2
30-11-2019 9.2 (14:00) 1.9 (00:00) 5.5 11.39 (09:40) 4.44 (19:10) 19.8 0.2 2 16 1.6
29-11-2019 13.4 (14:00) 1.4 (00:00) 7.4 10.83 (00:30) 6.39 (00:30) 0 0 0 0 0
28-11-2019 8.4 (12:00) 4.8 (03:30) 6.6 9.44 (17:40) 4.17 (18:00) 2.2 1.4 0 0.6 0.2
27-11-2019 7.5 (00:00) 4.4 (00:00) 6 13.06 (01:50) 6.39 (02:00) 7.8 2.4 0 3.2 2.2
26-11-2019 11.8 (11:30) 1.3 (00:00) 6.6 17.5 (19:40) 9.72 (19:40) 7.8 0 0.2 4 3.6
25-11-2019 12.2 (12:30) 2.3 (23:50) 7.2 9.17 (12:20) 5 (12:20) 0.2 0.2 0 0 0
24-11-2019 7.1 (13:50) -2 (-00:0) 2.5 10.28 (14:50) 6.39 (15:10) 0 0 0 0 0
23-11-2019 6.3 (14:40) 1.6 (00:00) 4 13.61 (14:50) 6.67 (15:00) 2 1.8 0 0.2 0
22-11-2019 6.8 (17:40) 1.8 (00:00) 4.3 17.5 (14:40) 8.33 (14:40) 21.2 0.4 6.6 9.4 4.8
21-11-2019 6 (13:50) -0.8 (-00:0) 2.6 8.33 (12:50) 4.17 (12:50) 2.8 1.6 0.8 0.4 0
20-11-2019 5.8 (14:30) -3.7 (05:50) 1.1 8.33 (18:40) 4.72 (18:10) 1 0 0 0 1
19-11-2019 7.5 (14:10) -1.8 (-00:0) 2.9 8.89 (04:50) 5.83 (04:50) 0 0 0 0 0
18-11-2019 2.7 (15:20) 0 (00:00) 1.4 16.39 (12:10) 10.28 (12:10) 1.4 1.2 0.2 0 0
17-11-2019 5.6 (12:20) -1.3 (-00:0) 2.1 8.89 (12:10) 5.83 (12:00) 2 0 0 0.8 1.2
16-11-2019 4.3 (14:50) -4.7 (-00:0) -0.2 8.33 (02:20) 5.83 (02:20) 0 0 0 0 0

Gráficas

Temp. máximas Temp. mínimas Temp. medias Precipitaciones Rachas de viento máximas Velocidades máximas media en intervalos de 10 minutos

Datos horarios

Fecha y hora oficial Temperatura (ºC) Velocidad del viento (km/h) Dirección del viento Racha (km/h) Dirección de racha Precipitación (mm) Presión (hPa) Tendencia (hPa) Humedad (%)
2019-12-15 23:00:00 4.4 12 Sur 26 Sur 0 -- -- 93
2019-12-15 22:00:00 4.5 13 Sur 22 Sur 0 -- -- 92
2019-12-15 21:00:00 4.6 10 Sur 18 Sur 0 -- -- 92
2019-12-15 20:00:00 4.6 9 Sur 17 Sudeste 0 -- -- 91
2019-12-15 19:00:00 4.9 11 Sur 23 Sur 0 -- -- 89
2019-12-15 18:00:00 5.6 14 Sur 24 Sur 0 -- -- 86
2019-12-15 17:00:00 6.5 9 Sur 20 Sur 0 -- -- 78
2019-12-15 16:00:00 7.9 10 Sur 24 Sudoeste 0 -- -- 70
2019-12-15 15:00:00 7.9 12 Sudoeste 32 Sudoeste 0 -- -- 68
2019-12-15 14:00:00 8.6 18 Sudoeste 35 Sudoeste 0 -- -- 63
2019-12-15 13:00:00 9.2 17 Sudoeste 38 Sudoeste 0 -- -- 67
2019-12-15 12:00:00 7.7 14 Sur 36 Sudoeste 0 -- -- 74
2019-12-15 11:00:00 6.5 18 Sur 36 Sur 0 -- -- 78
2019-12-15 10:00:00 5.2 5 Sudoeste 24 Oeste 0 -- -- 84
2019-12-15 09:00:00 4.6 11 Sudoeste 29 Sudoeste 0 -- -- 85
2019-12-15 08:00:00 4.3 16 Sudoeste 35 Sudoeste 0 -- -- 86
2019-12-15 07:00:00 4.4 13 Sudoeste 26 Sudoeste 0 -- -- 85
2019-12-15 06:00:00 4.4 12 Oeste 36 Oeste 0 -- -- 84
2019-12-15 05:00:00 5 18 Oeste 42 Oeste 0 -- -- 82
2019-12-15 04:00:00 5.5 21 Oeste 49 Oeste 0 -- -- 79
2019-12-15 03:00:00 5.5 15 Oeste 30 Noroeste 0 -- -- 82
2019-12-15 02:00:00 5.8 18 Oeste 36 Oeste 0 -- -- 80
2019-12-15 01:00:00 5.6 12 Oeste 42 Oeste 0 -- -- 79
2019-12-15 00:00:00 5.7 14 Oeste 52 Oeste 0 -- -- 79
2019-12-14 23:00:00 5.9 26 Oeste 48 Oeste 0 -- -- 83
2019-12-14 22:00:00 5.9 16 Sudoeste 46 Oeste 0 -- -- 78
2019-12-14 21:00:00 5.6 11 Sur 33 Sudoeste 0 -- -- 75
2019-12-14 20:00:00 6.1 9 Sur 37 Sudoeste 0 -- -- 77
2019-12-14 19:00:00 6.4 14 Sudoeste 42 Sudoeste 0 -- -- 77
2019-12-14 18:00:00 6.3 8 Sudeste 31 Sudoeste 0 -- -- 78
2019-12-14 17:00:00 6.7 12 Sur 41 Sudoeste 0 -- -- 75
2019-12-14 16:00:00 7.2 12 Sur 39 Sudoeste 0 -- -- 72
2019-12-14 15:00:00 8.7 18 Sudoeste 40 Oeste 0 -- -- 66
2019-12-14 14:00:00 8.3 17 Oeste 33 Sudoeste 0 -- -- 68
2019-12-14 13:00:00 8.1 15 Sudoeste 37 Oeste 0 -- -- 70
2019-12-14 12:00:00 8.8 15 Sudoeste 30 Sudoeste 0 -- -- 68
2019-12-14 11:00:00 7.3 7 Sur 20 Sudoeste 0 -- -- 76
2019-12-14 10:00:00 2.5 3 Nordeste 10 Norte 0 -- -- 90
2019-12-14 09:00:00 0.2 9 Norte 15 Norte 0 -- -- 92
2019-12-14 08:00:00 1.8 6 Norte 11 Sur 0 -- -- 85
2019-12-14 07:00:00 3.9 10 Sur 23 Sudeste 0 -- -- 85
2019-12-14 06:00:00 4.4 8 Sudeste 22 Sudeste 0 -- -- 82
2019-12-14 05:00:00 4.6 6 Sudeste 21 Sur 0 -- -- 80
2019-12-14 04:00:00 5.1 7 Sudeste 36 Sur 0 -- -- 80
2019-12-14 03:00:00 5.6 13 Sur 30 Oeste 0 -- -- 78
2019-12-14 02:00:00 6.1 10 Sudeste 25 Sudeste 0 -- -- 80
2019-12-14 01:00:00 6.3 8 Sudeste 24 Sudeste 0 -- -- 80
2019-12-14 00:00:00 6 4 Sur 22 Sur 0 -- -- 77
2019-12-13 23:00:00 7.1 9 Sudeste 26 Oeste 0 -- -- 75
2019-12-13 22:00:00 7.7 7 Oeste 45 Oeste 0 -- -- 69
2019-12-13 21:00:00 8.6 27 Oeste 48 Noroeste 0 -- -- 67
2019-12-13 20:00:00 9.1 26 Oeste 56 Noroeste 0 -- -- 71
2019-12-13 19:00:00 9.8 24 Noroeste 53 Noroeste 0 -- -- 72
2019-12-13 18:00:00 10.1 26 Noroeste 42 Oeste 0 -- -- 75
2019-12-13 17:00:00 10.6 12 Noroeste 35 Noroeste 0 -- -- 73
2019-12-13 16:00:00 11.5 17 Noroeste 42 Norte 0 -- -- 69
2019-12-13 15:00:00 12.4 14 Noroeste 48 Noroeste 0 -- -- 69
2019-12-13 14:00:00 11.1 27 Noroeste 57 Noroeste 0 -- -- 71
2019-12-13 13:00:00 10.8 34 Noroeste 59 Noroeste 0 -- -- 71
2019-12-13 12:00:00 10.3 34 Noroeste 64 Noroeste 0 -- -- 73
2019-12-13 11:00:00 10.3 30 Noroeste 64 Noroeste 0 -- -- 71
2019-12-13 10:00:00 9.7 22 Noroeste 56 Noroeste 0 -- -- 73
2019-12-13 09:00:00 9 20 Noroeste 50 Noroeste 0 -- -- 75
2019-12-13 08:00:00 9.2 30 Noroeste 53 Noroeste 0 -- -- 73
2019-12-13 07:00:00 9.6 31 Noroeste 53 Noroeste 0 -- -- 71
2019-12-13 06:00:00 9.7 25 Noroeste 64 Oeste 0 -- -- 71
2019-12-13 05:00:00 9.8 31 Noroeste 57 Oeste 0 -- -- 72
2019-12-13 04:00:00 9.1 23 Noroeste 48 Noroeste 0 -- -- 78
2019-12-13 03:00:00 8.9 21 Noroeste 45 Noroeste 0.2 -- -- 79
2019-12-13 02:00:00 8.3 15 Noroeste 33 Noroeste 0.2 -- -- 84
2019-12-13 01:00:00 8.6 15 Noroeste 45 Noroeste 0.2 -- -- 80
2019-12-13 00:00:00 8.1 19 Noroeste 42 Oeste 0.2 -- -- 81
2019-12-12 23:00:00 7.2 11 Noroeste 25 Norte 0.2 -- -- 85
2019-12-12 22:00:00 7.5 15 Noroeste 35 Noroeste 0 -- -- 80
2019-12-12 21:00:00 6.9 18 Noroeste 41 Noroeste 0 -- -- 79
2019-12-12 20:00:00 6.2 18 Noroeste 33 Oeste 0 -- -- 82
2019-12-12 19:00:00 4.6 7 Oeste 22 Sudoeste 0.2 -- -- 90
2019-12-12 18:00:00 3.9 5 Sudoeste 18 Sudeste 0.4 -- -- 90
2019-12-12 17:00:00 2.7 8 Sudeste 18 Sur 0.2 -- -- 91
2019-12-12 16:00:00 2.7 10 Sudoeste 28 Sudoeste 0.4 -- -- 91
2019-12-12 15:00:00 2.1 8 Sur 31 Oeste 0.4 -- -- 91
2019-12-12 14:00:00 2.6 13 Oeste 32 Oeste 0.4 -- -- 88
2019-12-12 13:00:00 2.9 12 Sudoeste 37 Oeste 0.2 -- -- 86
2019-12-12 12:00:00 2.7 15 Sudoeste 33 Sudoeste 0 -- -- 87
2019-12-12 11:00:00 2.3 9 Oeste 26 Oeste 0 -- -- 86
2019-12-12 10:00:00 2.1 4 Oeste 28 Oeste 0 -- -- 86
2019-12-12 09:00:00 1.3 7 Sur 23 Sudeste 0 -- -- 89
2019-12-12 08:00:00 1.1 5 Sudeste 13 Sudeste 0 -- -- 89
2019-12-12 07:00:00 1 3 Sur 15 Sudoeste 0 -- -- 86
2019-12-12 06:00:00 0.7 3 Oeste 12 Oeste 0 -- -- 86
2019-12-12 05:00:00 1.3 3 Sur 18 Sudoeste 0 -- -- 85
2019-12-12 04:00:00 1.7 7 Oeste 28 Oeste 0 -- -- 82
2019-12-12 03:00:00 0.6 15 Oeste 25 Oeste 0 -- -- 89
2019-12-12 02:00:00 -0.8 3 Sudoeste 9 Oeste 0 -- -- 88
2019-12-12 01:00:00 -1.2 0 Calma 6 Norte 0 -- -- 86
2019-12-12 00:00:00 -0.4 3 Sudeste 15 Este 0 -- -- 83
2019-12-11 23:00:00 0.3 5 Sudeste 19 Sudoeste 0 -- -- 80
2019-12-11 22:00:00 0.5 7 Sudeste 19 Sudeste 0 -- -- 78
2019-12-11 21:00:00 1.1 8 Sudeste 19 Sudeste 0 -- -- 74
2019-12-11 20:00:00 1.1 9 Sudeste 19 Sudeste 0 -- -- 75
2019-12-11 19:00:00 0.9 6 Sudeste 15 Este 0 -- -- 74
2019-12-11 18:00:00 1.8 2 Este 34 Oeste 0 -- -- 71
2019-12-11 17:00:00 3.3 15 Noroeste 29 Noroeste 0 -- -- 70
2019-12-11 16:00:00 4.2 14 Noroeste 31 Noroeste 0 -- -- 75
2019-12-11 15:00:00 3.3 14 Norte 34 Norte 0 -- -- 85
2019-12-11 14:00:00 2.8 23 Norte 44 Norte 0 -- -- 87
2019-12-11 13:00:00 4.3 15 Norte 29 Noroeste 0.2 -- -- 82
2019-12-11 12:00:00 3.5 11 Norte 32 Norte 0 -- -- 88
2019-12-11 11:00:00 3.8 11 Norte 39 Noroeste 0 -- -- 88
2019-12-11 10:00:00 4.9 17 Norte 25 Noroeste 0.2 -- -- 86
2019-12-11 09:00:00 4.3 7 Oeste 19 Oeste 0 -- -- 88
2019-12-11 08:00:00 2.6 7 Sudoeste 17 Sudeste 0 -- -- 81
2019-12-11 07:00:00 0.7 4 Oeste 13 Oeste 0 -- -- 80
2019-12-11 06:00:00 -0.8 2 Oeste 6 Sudoeste 0 -- -- 83
2019-12-11 05:00:00 -1.1 2 Norte 9 Norte 0 -- -- 89
2019-12-11 04:00:00 -0.8 3 Oeste 9 Oeste 0 -- -- 90
2019-12-11 03:00:00 -0.2 0 Calma 8 Norte 0 -- -- 89
2019-12-11 02:00:00 0.1 6 Norte 13 Norte 0 -- -- 88
2019-12-11 01:00:00 0.2 4 Norte 11 Norte 0 -- -- 86
2019-12-11 00:00:00 1.5 3 Norte 10 Noroeste 0 -- -- 83
2019-12-10 23:00:00 1.8 2 Norte 6 Norte 0 -- -- 82
2019-12-10 22:00:00 2.3 3 Norte 13 Noroeste 0 -- -- 80
2019-12-10 21:00:00 2.9 3 Noroeste 8 Norte 0 -- -- 78
2019-12-10 20:00:00 3.7 6 Norte 10 Norte 0 -- -- 76
2019-12-10 19:00:00 4 6 Norte 12 Noroeste 0 -- -- 78
2019-12-10 18:00:00 5.6 5 Norte 8 Norte 0 -- -- 74
2019-12-10 17:00:00 8.7 2 Sudoeste 5 Sur 0 -- -- 61
2019-12-10 16:00:00 9.6 3 Sur 13 Sur 0 -- -- 55
2019-12-10 15:00:00 10.9 9 Sur 14 Sur 0 -- -- 50
2019-12-10 14:00:00 11.1 9 Sur 17 Norte 0 -- -- 48
2019-12-10 13:00:00 11.9 9 Norte 17 Nordeste 0 -- -- 27
2019-12-10 12:00:00 8 0 Calma 6 Sudeste 0 -- -- 57
2019-12-10 11:00:00 4.5 2 Sur 13 Sudeste 0 -- -- 67
2019-12-10 10:00:00 2.4 2 Sudeste 10 Norte 0 -- -- 65
2019-12-10 09:00:00 -2.1 0 Calma 8 Noroeste 0 -- -- 81
2019-12-10 08:00:00 -0.6 0 Calma 16 Noroeste 0 -- -- 71
2019-12-10 07:00:00 2.1 9 Noroeste 22 Noroeste 0 -- -- 50
2019-12-10 06:00:00 1.6 14 Noroeste 24 Noroeste 0 -- -- 62
2019-12-10 05:00:00 0.9 15 Noroeste 27 Noroeste 0 -- -- 82
2019-12-10 04:00:00 1.2 18 Noroeste 26 Noroeste 0 -- -- 84
2019-12-10 03:00:00 1.3 14 Noroeste 22 Noroeste 0 -- -- 84
2019-12-10 02:00:00 2.2 12 Norte 25 Norte 0 -- -- 81
2019-12-10 01:00:00 2.6 12 Norte 25 Oeste 0 -- -- 81
2019-12-10 00:00:00 3.1 12 Norte 29 Noroeste 0 -- -- 79
2019-12-09 23:00:00 3.2 6 Este 42 Norte 0 -- -- 77
2019-12-09 22:00:00 3 10 Norte 42 Norte 0 -- -- 76
2019-12-09 21:00:00 3.3 24 Norte 56 Norte 0 -- -- 74
2019-12-09 20:00:00 3.5 19 Norte 43 Norte 0 -- -- 79
2019-12-09 19:00:00 4.2 12 Noroeste 48 Noroeste 0 -- -- 71
2019-12-09 18:00:00 4.5 33 Noroeste 65 Norte 0 -- -- 70
2019-12-09 17:00:00 4.8 31 Norte 55 Norte 0 -- -- 75
2019-12-09 16:00:00 5.4 29 Noroeste 64 Noroeste 0 -- -- 70
2019-12-09 15:00:00 6.3 38 Noroeste 68 Noroeste 0 -- -- 65
2019-12-09 14:00:00 6.6 32 Norte 66 Norte 0 -- -- 65
2019-12-09 13:00:00 6.5 37 Norte 63 Noroeste 0 -- -- 66
2019-12-09 12:00:00 6.1 41 Noroeste 63 Noroeste 0 -- -- 68
2019-12-09 11:00:00 4.9 41 Norte 59 Norte 0 -- -- 67
2019-12-09 10:00:00 3.8 26 Norte 50 Noroeste 0 -- -- 66
2019-12-09 09:00:00 1.2 26 Noroeste 50 Noroeste 0 -- -- 83
2019-12-09 08:00:00 -3.3 3 Noroeste 7 Sudoeste 0 -- -- 96
2019-12-09 07:00:00 -4.1 2 Sudeste 6 Nordeste 0 -- -- 94
2019-12-09 06:00:00 -3.6 2 Norte 9 Norte 0 -- -- 93
2019-12-09 05:00:00 -3.8 0 Calma 5 Norte 0 -- -- 91
2019-12-09 04:00:00 -2.5 2 Noroeste 9 Norte 0 -- -- 91
2019-12-09 03:00:00 -2.5 3 Norte 6 Norte 0 -- -- 87
2019-12-09 02:00:00 -0.3 0 Calma 13 Norte 0 -- -- 78
2019-12-09 01:00:00 0.6 3 Norte 9 Nordeste 0 -- -- 77
2019-12-09 00:00:00 1.5 7 Norte 12 Nordeste 0 -- -- 77
2019-12-08 23:00:00 4.4 9 Nordeste 26 Norte 0 -- -- 75
2019-12-08 22:00:00 5 9 Norte 32 Norte 0 -- -- 81
2019-12-08 21:00:00 6.2 19 Norte 34 Noroeste 0 -- -- 82
2019-12-08 20:00:00 7.1 21 Norte 35 Norte 0 -- -- 90
2019-12-08 19:00:00 5.9 3 Sudeste 8 Sudoeste 0.6 -- -- 95
2019-12-08 18:00:00 6 0 Calma 4 Noroeste 0.8 -- -- 93
2019-12-08 17:00:00 6.3 0 Calma 3 Sudoeste 0.2 -- -- 92
2019-12-08 16:00:00 6.5 3 Sudeste 5 Sudeste 0.2 -- -- 91
2019-12-08 15:00:00 6.6 0 Calma 9 Sudeste 0.2 -- -- 88
2019-12-08 14:00:00 6.9 3 Sur 6 Sur 0 -- -- 85
2019-12-08 13:00:00 6.6 4 Sur 10 Sur 0 -- -- 83
2019-12-08 12:00:00 5.5 2 Sur 6 Sudeste 0 -- -- 87
2019-12-08 11:00:00 6 3 Sur 7 Sur 0 -- -- 85
2019-12-08 10:00:00 4 4 Sudeste 9 Norte 0 -- -- 98
2019-12-08 09:00:00 -0.6 3 Nordeste 7 Oeste 0 -- -- 98
2019-12-08 08:00:00 -0.9 3 Norte 10 Norte 0 -- -- 96
2019-12-08 07:00:00 -0.7 5 Norte 11 Norte 0 -- -- 97
2019-12-08 06:00:00 -1.1 5 Norte 9 Norte 0 -- -- 96
2019-12-08 05:00:00 -0.8 5 Norte 10 Norte 0 -- -- 97
2019-12-08 04:00:00 -0.5 8 Norte 9 Norte 0 -- -- 95
2019-12-08 03:00:00 0 4 Norte 9 Norte 0 -- -- 95
2019-12-08 02:00:00 0.5 9 Norte 12 Norte 0 -- -- 95
2019-12-08 01:00:00 0.1 6 Norte 11 Norte 0 -- -- 94
2019-12-08 00:00:00 1 6 Norte 11 Norte 0 -- -- 93
2019-12-07 23:00:00 1.9 7 Norte 12 Norte 0 -- -- 92
2019-12-07 22:00:00 1.9 9 Norte 14 Norte 0 -- -- 91
2019-12-07 21:00:00 2.3 9 Norte 15 Norte 0 -- -- 92
2019-12-07 20:00:00 2.6 10 Norte 14 Norte 0 -- -- 92
2019-12-07 19:00:00 2.9 5 Norte 9 Norte 0 -- -- 88
2019-12-07 18:00:00 4.8 5 Norte 6 Norte 0 -- -- 82
2019-12-07 17:00:00 9.4 4 Sur 8 Sudeste 0 -- -- 69
2019-12-07 16:00:00 10.4 5 Sur 11 Sur 0 -- -- 64
2019-12-07 15:00:00 11.1 7 Sur 15 Sudeste 0 -- -- 61
2019-12-07 14:00:00 11.2 6 Sur 12 Sudeste 0 -- -- 59
2019-12-07 13:00:00 11 5 Sur 10 Sur 0 -- -- 61
2019-12-07 12:00:00 9.5 6 Sur 12 Sudeste 0 -- -- 64
2019-12-07 11:00:00 7.8 3 Sudeste 7 Norte 0 -- -- 71
2019-12-07 10:00:00 3.4 5 Nordeste 9 Norte 0.2 -- -- 88
2019-12-07 09:00:00 0.8 6 Norte 13 Norte 0 -- -- 95
2019-12-07 08:00:00 -0.1 8 Norte 13 Norte 0 -- -- 95
2019-12-07 07:00:00 -0.4 7 Norte 13 Norte 0 -- -- 96
2019-12-07 06:00:00 -0.5 6 Norte 10 Norte 0 -- -- 96
2019-12-07 05:00:00 -0.5 6 Norte 14 Norte 0 -- -- 97
2019-12-07 04:00:00 -0.5 3 Norte 9 Norte 0 -- -- 96
2019-12-07 03:00:00 0.2 7 Norte -- -- 0 -- -- 96
2019-12-07 02:00:00 -0.2 5 Norte 12 Norte 0 -- -- 96
2019-12-07 01:00:00 -0.1 6 Norte 12 Norte 0 -- -- 95
2019-12-07 00:00:00 0.3 8 Norte 13 Norte 0 -- -- 96
2019-12-06 23:00:00 -0.1 8 Norte 13 Norte 0 -- -- 96
2019-12-06 22:00:00 0.3 8 Noroeste 12 Norte 0 -- -- 96
2019-12-06 21:00:00 0.5 6 Norte 12 Norte 0 -- -- 94
2019-12-06 20:00:00 1 8 Norte 12 Norte 0 -- -- 94
2019-12-06 19:00:00 1.6 6 Norte 10 Norte 0 -- -- 92
2019-12-06 18:00:00 2.9 4 Norte 5 Norte 0 -- -- 87
2019-12-06 17:00:00 6.6 3 Sudoeste 11 Sur 0 -- -- 80
2019-12-06 16:00:00 7.8 6 Sur 14 Sudeste 0 -- -- 77
2019-12-06 15:00:00 9.3 6 Sur 11 Sur 0 -- -- 74
2019-12-06 14:00:00 8.1 5 Sur 13 Sur 0 -- -- 78
2019-12-06 13:00:00 6.7 3 Este 10 Sudeste 0 -- -- 86
2019-12-06 12:00:00 4.6 4 Sudeste 11 Sudeste 0 -- -- 93
2019-12-06 11:00:00 4.2 6 Sur 10 Sudeste 0 -- -- 97
2019-12-06 10:00:00 2.3 0 Calma 4 Norte 0 -- -- 98
2019-12-06 09:00:00 1.1 4 Norte 9 Norte 0 -- -- 97
2019-12-06 08:00:00 0.2 4 Norte 9 Norte 0 -- -- 98
2019-12-06 07:00:00 -1.3 5 Norte 8 Norte 0 -- -- 97
2019-12-06 06:00:00 -0.8 6 Norte 11 Noroeste 0 -- -- 96
2019-12-06 05:00:00 -0.6 7 Norte 10 Norte 0 -- -- 96
2019-12-06 04:00:00 -0.9 7 Norte 11 Norte 0 -- -- 96
2019-12-06 03:00:00 -1 7 Norte 12 Norte 0 -- -- 96
2019-12-06 02:00:00 -0.5 8 Norte 12 Norte 0 -- -- 96
2019-12-06 01:00:00 -0.2 8 Norte 12 Norte 0 -- -- 95
2019-12-06 00:00:00 -0.3 7 Norte 10 Norte 0 -- -- 94
2019-12-05 23:00:00 0.7 6 Norte 12 Noroeste 0 -- -- 91
2019-12-05 22:00:00 1.9 7 Norte 24 Norte 0 -- -- 90
2019-12-05 21:00:00 2.1 13 Norte 23 Norte 0 -- -- 91
2019-12-05 20:00:00 2.1 13 Norte 25 Norte 0 -- -- 91
2019-12-05 19:00:00 2.3 14 Norte 25 Norte 0 -- -- 89
2019-12-05 18:00:00 2.6 11 Norte 22 Norte 0 -- -- 88
2019-12-05 17:00:00 3.6 14 Norte 31 Norte 0 -- -- 85
2019-12-05 16:00:00 4.5 20 Norte 32 Nordeste 0 -- -- 84
2019-12-05 15:00:00 5.3 16 Norte 27 Norte 0 -- -- 81
2019-12-05 14:00:00 5.2 18 Norte 29 Norte 0 -- -- 80
2019-12-05 13:00:00 4.2 14 Norte 29 Norte 0 -- -- 85
2019-12-05 12:00:00 5 21 Norte 39 Norte 0 -- -- 83
2019-12-05 11:00:00 4 16 Norte 34 Nordeste 0 -- -- 88
2019-12-05 10:00:00 3 14 Norte 35 Noroeste 0 -- -- 89
2019-12-05 09:00:00 3 15 Norte 28 Norte 0 -- -- 91
2019-12-05 08:00:00 2.6 15 Norte 30 Norte 0 -- -- 93
2019-12-05 07:00:00 2.5 18 Norte 29 Norte 0 -- -- 93
2019-12-05 06:00:00 2.4 21 Norte 35 Norte 0 -- -- 93
2019-12-05 05:00:00 2.4 23 Norte 35 Norte 0 -- -- 92
2019-12-05 04:00:00 2.1 22 Norte 36 Norte 0 -- -- 94
2019-12-05 03:00:00 2 22 Norte 40 Norte 0 -- -- 93
2019-12-05 02:00:00 2.2 17 Norte 44 Norte 0 -- -- 92
2019-12-05 01:00:00 2.5 24 Norte 41 Nordeste 0 -- -- 91
2019-12-05 00:00:00 2.3 23 Norte 51 Norte 0 -- -- 91
2019-12-04 23:00:00 2 34 Norte 50 Norte 0 -- -- 92
2019-12-04 22:00:00 1.9 29 Norte 45 Norte 0 -- -- 91
2019-12-04 21:00:00 2 24 Norte 49 Norte 0 -- -- 88
2019-12-04 20:00:00 3.5 24 Norte 42 Norte 0 -- -- 87
2019-12-04 19:00:00 4.2 17 Norte 32 Norte 0 -- -- 86
2019-12-04 18:00:00 5.2 19 Norte 34 Norte 0 -- -- 82
2019-12-04 17:00:00 5.8 17 Norte 34 Norte 0 -- -- 82
2019-12-04 16:00:00 7.1 20 Norte 31 Norte 0 -- -- 77
2019-12-04 15:00:00 7.7 12 Nordeste 27 Norte 0 -- -- 68
2019-12-04 14:00:00 7.8 10 Nordeste 25 Nordeste 0 -- -- 71
2019-12-04 13:00:00 7.6 10 Nordeste 22 Este 0 -- -- 72
2019-12-04 12:00:00 7 8 Nordeste 18 Nordeste 0 -- -- 76
2019-12-04 11:00:00 6 0 Calma 13 Sudoeste 0 -- -- 82
2019-12-04 10:00:00 5.2 8 Sur 17 Nordeste 0 -- -- 86
2019-12-04 09:00:00 3.5 4 Norte 10 Norte 0 -- -- 93
2019-12-04 08:00:00 2.2 3 Noroeste 14 Norte 0 -- -- 94
2019-12-04 07:00:00 1.8 7 Noroeste 11 Noroeste 0 -- -- 95
2019-12-04 06:00:00 1.4 3 Nordeste 12 Noroeste 0 -- -- 93
2019-12-04 05:00:00 2.2 4 Norte 8 Norte 0 -- -- 93
2019-12-04 04:00:00 1.8 0 Calma 10 Norte 0 -- -- 92
2019-12-04 03:00:00 1.6 3 Norte 10 Norte 0 -- -- 92
2019-12-04 02:00:00 1 6 Norte 11 Noroeste 0 -- -- 93
2019-12-04 01:00:00 -0.2 4 Norte 9 Norte 0 -- -- 93
2019-12-04 00:00:00 -1.2 6 Norte 12 Noroeste 0 -- -- 94
2019-12-03 23:00:00 -1.4 6 Norte 10 Norte 0 -- -- 92
2019-12-03 22:00:00 -0.8 7 Norte 10 Noroeste 0 -- -- 91
2019-12-03 21:00:00 -0.2 4 Norte 9 Norte 0 -- -- 92
2019-12-03 20:00:00 0 4 Norte 7 Noroeste 0 -- -- 88
2019-12-03 19:00:00 1.1 3 Noroeste 5 Noroeste 0 -- -- 85
2019-12-03 18:00:00 1.9 0 Calma 10 Sur 0 -- -- 82
2019-12-03 17:00:00 2.6 2 Norte 9 Este 0 -- -- 76
2019-12-03 16:00:00 2.8 6 Este 25 Este 0 -- -- 74
2019-12-03 15:00:00 4 10 Este 21 Sudeste 0 -- -- 67
2019-12-03 14:00:00 4.6 5 Este 23 Noroeste 0 -- -- 64
2019-12-03 13:00:00 3.3 15 Norte 26 Norte 0 -- -- 69
2019-12-03 12:00:00 2.3 14 Norte 24 Norte 0 -- -- 70
2019-12-03 11:00:00 1.5 13 Norte 25 Norte 0 -- -- 74
2019-12-03 10:00:00 0.4 14 Norte 28 Norte 0 -- -- 77
2019-12-03 09:00:00 -1 14 Norte 33 Norte 0 -- -- 82
2019-12-03 08:00:00 -1.5 19 Norte 30 Norte 0 -- -- 83
2019-12-03 07:00:00 -1.4 17 Norte 29 Norte 0 -- -- 83
2019-12-03 06:00:00 -1.4 16 Norte 31 Norte 0 -- -- 83
2019-12-03 05:00:00 -1.2 15 Norte 41 Norte 0 -- -- 83
2019-12-03 04:00:00 -1.3 18 Norte 34 Norte 0 -- -- 87
2019-12-03 03:00:00 -1.2 17 Norte 38 Norte 0 -- -- 86
2019-12-03 02:00:00 -1 19 Norte 36 Norte 0 -- -- 85
2019-12-03 01:00:00 -1 20 Norte 35 Norte 0 -- -- 84
2019-12-03 00:00:00 -0.9 16 Norte 35 Norte 0 -- -- 85
2019-12-02 23:00:00 -1.2 19 Norte 40 Norte 0 -- -- 86
2019-12-02 22:00:00 -1 23 Norte 36 Noroeste 0 -- -- 85
2019-12-02 21:00:00 -0.2 20 Norte 40 Norte 0 -- -- 88
2019-12-02 20:00:00 0.4 27 Norte 43 Norte 0 -- -- 88
2019-12-02 19:00:00 1.1 24 Norte 40 Norte 0 -- -- 90
2019-12-02 18:00:00 1.6 18 Norte 34 Norte 0 -- -- 89
2019-12-02 17:00:00 2.8 12 Norte 35 Norte 0 -- -- 87
2019-12-02 16:00:00 3.7 21 Norte 44 Norte 0 -- -- 78
2019-12-02 15:00:00 3.4 25 Norte 50 Norte 0 -- -- 79
2019-12-02 14:00:00 3.4 29 Norte 51 Norte 0 -- -- 80
2019-12-02 13:00:00 4 27 Norte 53 Norte 0 -- -- 78
2019-12-02 12:00:00 3.8 28 Norte 51 Norte 0 -- -- 80
2019-12-02 11:00:00 3.9 21 Norte 52 Norte 0 -- -- 78
2019-12-02 10:00:00 3 33 Norte 51 Norte 0 -- -- 83
2019-12-02 09:00:00 2.4 27 Norte 46 Nordeste 0 -- -- 85
2019-12-02 08:00:00 2.1 22 Norte 42 Norte 0 -- -- 84
2019-12-02 07:00:00 2.3 18 Norte 39 Norte 0 -- -- 84
2019-12-02 06:00:00 2.4 12 Norte 37 Norte 0 -- -- 86
2019-12-02 05:00:00 2.7 22 Norte 55 Norte 0 -- -- 83
2019-12-02 04:00:00 2.8 30 Norte 53 Norte 0 -- -- 82
2019-12-02 03:00:00 2.7 28 Norte 46 Norte 0 -- -- 85
2019-12-02 02:00:00 2.9 21 Norte 39 Norte 0 -- -- 87
2019-12-02 01:00:00 3 20 Norte 32 Norte 0 -- -- 86
2019-12-02 00:00:00 2.7 11 Norte 29 Norte 0 -- -- 87
2019-12-01 23:00:00 3 18 Norte 32 Norte 0 -- -- 87
2019-12-01 22:00:00 2.5 12 Noroeste 23 Norte 0.2 -- -- 92
2019-12-01 21:00:00 2.5 14 Noroeste 21 Noroeste 0 -- -- 91
2019-12-01 20:00:00 2.7 8 Noroeste 12 Norte 0 -- -- 91
2019-12-01 19:00:00 3.3 3 Noroeste 8 Nordeste 0 -- -- 91
2019-12-01 18:00:00 3.3 2 Norte 12 Norte 0.2 -- -- 92
2019-12-01 17:00:00 3.8 6 Nordeste 20 Nordeste 0 -- -- 87
2019-12-01 16:00:00 5.2 5 Nordeste 19 Este 0 -- -- 84
2019-12-01 15:00:00 5.4 3 Sudoeste 9 Sur 0 -- -- 91
2019-12-01 14:00:00 5.1 4 Sur 9 Sur 0 -- -- 93
2019-12-01 13:00:00 4.2 4 Sudeste 6 Este 0 -- -- 97
2019-12-01 12:00:00 2.9 0 Calma 6 Sur 0 -- -- 98
2019-12-01 11:00:00 2.3 4 Sudoeste 7 Sudoeste 0 -- -- 98
2019-12-01 10:00:00 0.7 2 Nordeste 6 Oeste 0 -- -- 98
2019-12-01 09:00:00 0.1 4 Norte 9 Nordeste 0 -- -- 97
2019-12-01 08:00:00 0 3 Norte 9 Norte 0 -- -- 98
2019-12-01 07:00:00 0.1 5 Norte 10 Noroeste 0 -- -- 97
2019-12-01 06:00:00 0.1 3 Norte 10 Noroeste 0 -- -- 97
2019-12-01 05:00:00 0 5 Norte 8 Nordeste 0 -- -- 97
2019-12-01 04:00:00 1 3 Nordeste 9 Este 0 -- -- 97
2019-12-01 03:00:00 1 4 Noroeste 9 Oeste 0 -- -- 97
2019-12-01 02:00:00 -0.1 2 Norte 9 Noroeste 0 -- -- 96
2019-12-01 01:00:00 0.3 3 Norte 9 Noroeste 0 -- -- 95
2019-12-01 00:00:00 1.9 2 Norte 11 Sudeste 0 -- -- 94
2019-11-30 23:00:00 3.2 3 Oeste 8 Sudoeste 0 -- -- 95
2019-11-30 22:00:00 3.5 3 Sudoeste 16 Oeste 0 -- -- 93
2019-11-30 21:00:00 4 9 Noroeste 18 Oeste 0 -- -- 89
2019-11-30 20:00:00 4.5 0 Calma 30 Norte 0.6 -- -- 92
2019-11-30 19:00:00 5.4 16 Norte 28 Noroeste 1 -- -- 91
2019-11-30 18:00:00 7.2 13 Noroeste 28 Noroeste 1.4 -- -- 92
2019-11-30 17:00:00 8.6 14 Sudoeste 30 Sur 4.2 -- -- 97
2019-11-30 16:00:00 8.7 11 Sur 21 Sudeste 4.4 -- -- 97
2019-11-30 15:00:00 9 10 Sur 23 Sur 3.6 -- -- 97
2019-11-30 14:00:00 9.2 7 Sur 29 Sur 1.2 -- -- 96
2019-11-30 13:00:00 8.9 13 Sudoeste 31 Sudoeste 1.2 -- -- 96
2019-11-30 12:00:00 8.8 11 Sur 28 Sudoeste 0.4 -- -- 96
2019-11-30 11:00:00 8.8 15 Sudoeste 26 Sur 0.6 -- -- 97
2019-11-30 10:00:00 8.3 12 Sudoeste 41 Sudoeste 0 -- -- 97
2019-11-30 09:00:00 8 9 Sur 24 Sudoeste 0.4 -- -- 97
2019-11-30 08:00:00 7.7 9 Sudoeste 21 Oeste 0.4 -- -- 97
2019-11-30 07:00:00 6.8 0 Calma 8 Este 0.2 -- -- 97
2019-11-30 06:00:00 7.1 4 Este 6 Sudeste 0.2 -- -- 96
2019-11-30 05:00:00 7.3 5 Sudeste 16 Sudeste 0 -- -- 96
2019-11-30 04:00:00 6.4 3 Sudoeste 10 Sudoeste 0 -- -- 96
2019-11-30 03:00:00 5.6 4 Sudeste 12 Sudoeste 0 -- -- 95
2019-11-30 02:00:00 3.9 0 Calma 5 Norte 0 -- -- 92
2019-11-30 01:00:00 3 3 Norte 13 Oeste 0 -- -- 89
2019-11-30 00:00:00 3.1 7 Norte 14 Norte 0 -- -- 86
2019-11-29 23:00:00 1.6 7 Norte 15 Norte 0 -- -- 86
2019-11-29 22:00:00 1.4 8 Norte 15 Norte 0 -- -- 85
2019-11-29 21:00:00 1.8 6 Norte 15 Norte 0 -- -- 86
2019-11-29 20:00:00 2.7 8 Norte 14 Norte 0 -- -- 87
2019-11-29 19:00:00 4.6 9 Norte 15 Norte 0 -- -- 84
2019-11-29 18:00:00 7.2 5 Norte 19 Oeste 0 -- -- 76
2019-11-29 17:00:00 10.3 10 Oeste 20 Oeste 0 -- -- 68
2019-11-29 16:00:00 12.4 8 Sudoeste 17 Sudoeste 0 -- -- 61
2019-11-29 15:00:00 13.3 4 Sur 13 Sur 0 -- -- 59
2019-11-29 14:00:00 13.4 5 Sudoeste 11 Sur 0 -- -- 64
2019-11-29 13:00:00 11.7 2 Nordeste 10 Sudoeste 0 -- -- 64
2019-11-29 12:00:00 10.5 3 Sur 11 Oeste 0 -- -- 75
2019-11-29 11:00:00 10.4 5 Sudeste 8 Sur 0 -- -- 76
2019-11-29 10:00:00 8 0 Calma 9 Noroeste 0 -- -- 94
2019-11-29 09:00:00 4.5 3 Norte 12 Oeste 0 -- -- 98
2019-11-29 08:00:00 4.4 2 Noroeste 9 Oeste 0 -- -- 96
2019-11-29 07:00:00 5.2 3 Sudeste 11 Norte 0 -- -- 97
2019-11-29 06:00:00 5 3 Norte 9 Norte 0 -- -- 96
2019-11-29 05:00:00 5 4 Noroeste 6 Oeste 0 -- -- 96
2019-11-29 04:00:00 5.4 4 Norte 7 Noroeste 0 -- -- 95
2019-11-29 03:00:00 6.1 0 Calma 8 Sudeste 0 -- -- 93
2019-11-29 02:00:00 7.5 4 Sudoeste 30 Oeste 0 -- -- 89
2019-11-29 01:00:00 8.5 17 Oeste 39 Oeste 0 -- -- 84
2019-11-29 00:00:00 8 10 Oeste 20 Oeste 0 -- -- 87
2019-11-28 23:00:00 7.5 7 Oeste 26 Sudoeste 0.2 -- -- 89
2019-11-28 22:00:00 7.3 7 Sudoeste 19 Sudoeste 0 -- -- 93
2019-11-28 21:00:00 7.2 8 Sur 21 Sudoeste 0 -- -- 93
2019-11-28 20:00:00 7 7 Sur 24 Sur 0 -- -- 92
2019-11-28 19:00:00 7.1 10 Sudoeste 32 Sur 0 -- -- 90
2019-11-28 18:00:00 7.4 15 Sudoeste 34 Sudoeste 0.2 -- -- 88
2019-11-28 17:00:00 7.6 8 Sudoeste 28 Sudoeste 0 -- -- 88
2019-11-28 16:00:00 8 10 Sudoeste 24 Sudoeste 0 -- -- 87
2019-11-28 15:00:00 7.8 7 Oeste 20 Sudoeste 0 -- -- 89
2019-11-28 14:00:00 7.6 8 Sudoeste 26 Oeste 0.4 -- -- 91
2019-11-28 13:00:00 8.1 10 Sudoeste 25 Sudoeste 0 -- -- 89
2019-11-28 12:00:00 8.4 13 Sudoeste 29 Sudoeste 0 -- -- 85
2019-11-28 11:00:00 7.6 12 Oeste 26 Sudoeste 0 -- -- 88
2019-11-28 10:00:00 6.8 14 Sur 28 Sur 0 -- -- 94
2019-11-28 09:00:00 6 12 Sudeste 19 Sudeste 0 -- -- 95
2019-11-28 08:00:00 5.3 5 Sudeste 16 Sur 0 -- -- 92
2019-11-28 07:00:00 5.6 4 Oeste 27 Noroeste 0 -- -- 87
2019-11-28 06:00:00 5.5 10 Oeste 30 Sudoeste 0 -- -- 87
2019-11-28 05:00:00 5.3 8 Oeste 21 Oeste 0 -- -- 91
2019-11-28 04:00:00 5.2 11 Oeste 26 Noroeste 0 -- -- 93
2019-11-28 03:00:00 5 5 Oeste 15 Oeste 0.2 -- -- 94
2019-11-28 02:00:00 5.2 6 Sudoeste 16 Oeste 0.4 -- -- 95
2019-11-28 01:00:00 5.4 6 Sur 10 Sudoeste 0.8 -- -- 94
2019-11-28 00:00:00 5.5 4 Sudeste 20 Sudoeste 0.2 -- -- 92
2019-11-27 23:00:00 5.1 4 Oeste 24 Sudoeste 0.2 -- -- 91
2019-11-27 22:00:00 5.4 8 Oeste 30 Sudoeste 0 -- -- 93
2019-11-27 21:00:00 5.2 4 Sudoeste 22 Sudoeste 0.4 -- -- 94
2019-11-27 20:00:00 5.4 5 Sudoeste 19 Sudoeste 0.4 -- -- 94
2019-11-27 19:00:00 5.5 4 Sur 19 Sudoeste 1 -- -- 94
2019-11-27 18:00:00 5.6 10 Sudoeste 21 Sudoeste 1.6 -- -- 94
2019-11-27 17:00:00 5.7 6 Sur 18 Sudoeste 1.2 -- -- 92
2019-11-27 16:00:00 6 8 Sudoeste 26 Oeste 0.2 -- -- 90
2019-11-27 15:00:00 6.7 6 Sudoeste 28 Oeste 0.2 -- -- 88
2019-11-27 14:00:00 7.4 12 Oeste 37 Sudoeste 0 -- -- 83
2019-11-27 06:00:00 -- -- -- -- -- -- -- -- --
2019-11-27 05:00:00 -- -- -- -- -- -- -- -- --
2019-11-27 04:00:00 5.4 10 Noroeste 35 Oeste 0 -- -- 84
2019-11-27 03:00:00 5.8 17 Sudoeste 37 Sudoeste 0.2 -- -- 90
2019-11-27 02:00:00 6.3 23 Oeste 47 Sudoeste 0.4 -- -- 90
2019-11-27 01:00:00 6.7 12 Oeste 40 Oeste 1.8 -- -- 92
2019-11-27 00:00:00 7.5 16 Sudoeste 52 Sudoeste 1.6 -- -- 93
2019-11-26 23:00:00 8.2 27 Sudoeste 58 Sudoeste 0 -- -- 90
2019-11-26 22:00:00 8.4 21 Sudoeste 54 Sudoeste 0.8 -- -- 92
2019-11-26 21:00:00 8.7 15 Sudoeste 53 Sudoeste 1 -- -- 95
2019-11-26 20:00:00 8.7 32 Sudoeste 63 Sudoeste 0 -- -- 96
2019-11-26 19:00:00 8.3 21 Sudoeste 50 Sudoeste 0.2 -- -- 96
2019-11-26 18:00:00 8.1 19 Sur 44 Sudoeste 0 -- -- 97
2019-11-26 17:00:00 8.3 18 Sur 37 Sudoeste 0 -- -- 97
2019-11-26 16:00:00 8.2 11 Sur 23 Sur 0.6 -- -- 97
2019-11-26 15:00:00 8.3 12 Sur 22 Sur 1.2 -- -- 97
2019-11-26 14:00:00 8.3 8 Sur 20 Sudeste 1.2 -- -- 96
2019-11-26 13:00:00 8.5 11 Sur 22 Sudeste 1 -- -- 92
2019-11-26 12:00:00 10.6 10 Sur 30 Sudoeste 0.2 -- -- 86
2019-11-26 11:00:00 11.2 21 Oeste 44 Oeste 0 -- -- 84
2019-11-26 10:00:00 9.8 9 Oeste 28 Noroeste 0 -- -- 93
2019-11-26 09:00:00 6.9 9 Sudeste 17 Sudeste 0 -- -- 94
2019-11-26 08:00:00 6.5 11 Sur 21 Sur 0 -- -- 95
2019-11-26 07:00:00 5.6 5 Sudoeste 18 Sur 0 -- -- 95
2019-11-26 06:00:00 4.3 3 Sudoeste 10 Sur 0 -- -- 95
2019-11-26 05:00:00 3.4 4 Norte 12 Norte 0 -- -- 94
2019-11-26 04:00:00 2.7 6 Norte 11 Norte 0 -- -- 95
2019-11-26 03:00:00 2.1 5 Norte 12 Norte 0 -- -- 95
2019-11-26 02:00:00 1.3 8 Norte 13 Norte 0 -- -- 94
2019-11-26 01:00:00 1.9 7 Norte 10 Norte 0 -- -- 93
2019-11-26 00:00:00 2.5 3 Norte 9 Nordeste 0 -- -- 92
2019-11-25 23:00:00 2.7 3 Norte 7 Norte 0 -- -- 92
2019-11-25 22:00:00 3.2 4 Norte 10 Norte 0 -- -- 89
2019-11-25 21:00:00 4 3 Noroeste 8 Nordeste 0 -- -- 89
2019-11-25 20:00:00 5.3 5 Oeste 19 Noroeste 0 -- -- 86
2019-11-25 19:00:00 6.1 3 Nordeste 12 Noroeste 0 -- -- 84
2019-11-25 18:00:00 8 10 Sudoeste 24 Sudoeste 0 -- -- 81
2019-11-25 17:00:00 9.1 12 Oeste 25 Sudoeste 0 -- -- 74
2019-11-25 16:00:00 10.3 9 Oeste 25 Oeste 0 -- -- 63
2019-11-25 15:00:00 11.6 13 Oeste 30 Oeste 0 -- -- 60
2019-11-25 14:00:00 11.4 15 Sudoeste 29 Oeste 0 -- -- 65
2019-11-25 13:00:00 10.9 13 Sudoeste 33 Oeste 0 -- -- 76
2019-11-25 12:00:00 11.5 15 Oeste 32 Sudoeste 0 -- -- 68
2019-11-25 11:00:00 10 14 Sudoeste 26 Sudoeste 0 -- -- 76
2019-11-25 10:00:00 7.8 6 Sudoeste 17 Sudeste 0 -- -- 93
2019-11-25 09:00:00 6.5 5 Sudeste 21 Sur 0 -- -- 97
2019-11-25 08:00:00 4.9 2 Oeste 8 Sur 0 -- -- 95
2019-11-25 07:00:00 5.6 3 Sur 16 Oeste 0 -- -- 93
2019-11-25 06:00:00 6.6 8 Oeste 21 Sudoeste 0 -- -- 93
2019-11-25 05:00:00 6.2 14 Oeste 24 Oeste 0 -- -- 96
2019-11-25 04:00:00 4.5 7 Sudoeste 18 Sudoeste 0 -- -- 98
2019-11-25 03:00:00 3.8 5 Sudeste 11 Sudeste 0.2 -- -- 96
2019-11-25 02:00:00 4.4 3 Sudeste 13 Sudeste 0 -- -- 95
2019-11-25 01:00:00 3.8 5 Sudoeste 14 Sudoeste 0 -- -- 94
2019-11-25 00:00:00 4.2 12 Sudoeste 17 Sur 0 -- -- 92
2019-11-24 23:00:00 3.8 7 Sur 17 Sur 0 -- -- 89
2019-11-24 22:00:00 3.9 14 Sudoeste 23 Sudoeste 0 -- -- 87
2019-11-24 21:00:00 3.7 12 Sur 23 Sur 0 -- -- 86
2019-11-24 20:00:00 3.9 5 Sur 23 Sur 0 -- -- 85
2019-11-24 19:00:00 3 6 Sudeste 11 Este 0 -- -- 81
2019-11-24 18:00:00 3.3 0 Calma 11 Sur 0 -- -- 79
2019-11-24 17:00:00 4.1 4 Sudeste 19 Sudoeste 0 -- -- 73
2019-11-24 16:00:00 4.4 14 Oeste 35 Oeste 0 -- -- 74
2019-11-24 15:00:00 4.7 19 Oeste 37 Oeste 0 -- -- 75
2019-11-24 14:00:00 7 13 Oeste 24 Oeste 0 -- -- 69
2019-11-24 13:00:00 6 8 Sudeste 18 Sur 0 -- -- 72
2019-11-24 12:00:00 5.1 8 Sur 15 Norte 0 -- -- 78
2019-11-24 11:00:00 3.4 4 Sur 10 Sur 0 -- -- 84
2019-11-24 10:00:00 2.6 5 Sur 11 Sudeste 0 -- -- 82
2019-11-24 09:00:00 -0.6 2 Sudeste 8 Norte 0 -- -- 93
2019-11-24 08:00:00 -1.5 6 Noroeste 10 Noroeste 0 -- -- 92
2019-11-24 07:00:00 -1.7 2 Noroeste 7 Nordeste 0 -- -- 91
2019-11-24 06:00:00 -1 0 Calma 14 Sudeste 0 -- -- 90
2019-11-24 05:00:00 -0.6 3 Sur 11 Sudeste 0 -- -- 87
2019-11-24 04:00:00 -0.6 4 Sudeste 10 Oeste 0 -- -- 87
2019-11-24 03:00:00 0.2 5 Sudeste 14 Sudeste 0 -- -- 84
2019-11-24 02:00:00 2.1 11 Sudeste 33 Norte 0 -- -- 77
2019-11-24 01:00:00 2.8 13 Noroeste 36 Oeste 0 -- -- 72
2019-11-24 00:00:00 2.5 6 Sudeste 25 Norte 0 -- -- 76
2019-11-23 23:00:00 3 15 Nordeste 30 Nordeste 0 -- -- 74
2019-11-23 22:00:00 3.1 5 Sur 28 Norte 0 -- -- 72
2019-11-23 21:00:00 3.4 14 Noroeste 41 Norte 0 -- -- 71
2019-11-23 20:00:00 3.4 12 Noroeste 33 Oeste 0 -- -- 74
2019-11-23 19:00:00 3.5 16 Noroeste 41 Noroeste 0 -- -- 73
2019-11-23 18:00:00 3.7 22 Noroeste 37 Noroeste 0 -- -- 75
2019-11-23 17:00:00 4.3 9 Noroeste 24 Norte 0 -- -- 72
2019-11-23 16:00:00 4 9 Oeste 42 Oeste 0 -- -- 74
2019-11-23 15:00:00 5.7 24 Noroeste 49 Noroeste 0 -- -- 63
2019-11-23 14:00:00 5.9 12 Noroeste 38 Norte 0.2 -- -- 65
2019-11-23 13:00:00 5 18 Noroeste 49 Oeste 0 -- -- 70
2019-11-23 12:00:00 4 10 Noroeste 40 Noroeste 0 -- -- 72
2019-11-23 11:00:00 3.3 21 Noroeste 46 Noroeste 0 -- -- 78
2019-11-23 10:00:00 3.2 15 Noroeste 38 Noroeste 0 -- -- 82
2019-11-23 09:00:00 2.6 9 Nordeste 26 Sur 0 -- -- 88
2019-11-23 08:00:00 1.8 5 Sudeste 16 Sudeste 0 -- -- 94
2019-11-23 07:00:00 1.6 5 Sudeste 13 Sudeste 0 -- -- 94
2019-11-23 06:00:00 2.2 6 Sudoeste 14 Sudoeste 0 -- -- 93
2019-11-23 05:00:00 2.4 0 Calma 17 Sudoeste 0 -- -- 94
2019-11-23 04:00:00 2.7 8 Oeste 28 Oeste 0.4 -- -- 93
2019-11-23 03:00:00 3.2 12 Oeste 35 Oeste -- -- -- 93
2019-11-23 02:00:00 3.5 14 Noroeste 44 Sudoeste 0.6 -- -- 93
2019-11-23 01:00:00 3.8 19 Sudoeste 43 Sudoeste 0.8 -- -- 93
2019-11-23 00:00:00 3.9 17 Sudoeste 48 Sudoeste 1.2 -- -- 95
2019-11-22 23:00:00 4.4 24 Sudoeste 45 Sudoeste 0.8 -- -- 94
2019-11-22 22:00:00 4.5 17 Sudoeste 35 Sudoeste 0.6 -- -- 93
2019-11-22 21:00:00 4.9 12 Sudoeste 49 Oeste 0 -- -- 92
2019-11-22 20:00:00 5.9 15 Oeste 35 Oeste 0.2 -- -- 96
2019-11-22 19:00:00 6.1 14 Sudoeste 41 Sudoeste 2 -- -- 98
2019-11-22 18:00:00 6.8 14 Sur 31 Sur 0 -- -- 98
2019-11-22 17:00:00 6.6 18 Sur 49 Sur 0.6 -- -- 98
2019-11-22 16:00:00 6.2 20 Sur 40 Sur 3.4 -- -- 98
2019-11-22 15:00:00 6.1 23 Sur 63 Sudoeste 3 -- -- 98
2019-11-22 14:00:00 5.8 21 Sur 52 Sur 1.2 -- -- 98
2019-11-22 13:00:00 5.3 20 Sur 42 Sur 1.2 -- -- 99
2019-11-22 12:00:00 4.8 17 Sur 35 Sur 1.4 -- -- 99
2019-11-22 11:00:00 4.3 23 Sur 50 Sur 2.6 -- -- 99
2019-11-22 10:00:00 4 19 Sur 42 Sur 0.8 -- -- 99
2019-11-22 09:00:00 3.6 21 Sur 40 Sudoeste 1 -- -- 99
2019-11-22 08:00:00 3.3 16 Sur 34 Sur 0 -- -- 99
2019-11-22 07:00:00 3 15 Sur 41 Sur 0.8 -- -- 98
2019-11-22 06:00:00 2.5 13 Sur 26 Sur 0.2 -- -- 98
2019-11-22 05:00:00 2.2 5 Sudeste 12 Sur 0.2 -- -- 98
2019-11-22 04:00:00 2.2 6 Sur 17 Sur 0 -- -- 98
2019-11-22 03:00:00 1.9 9 Sur 20 Sudeste 0 -- -- 98
2019-11-22 02:00:00 2 8 Sur 17 Sur 0 -- -- 98
2019-11-22 01:00:00 2.1 5 Sur 17 Sur 0 -- -- 98
2019-11-22 00:00:00 2.3 9 Sur 17 Sur 0 -- -- 98
2019-11-21 23:00:00 1.6 6 Sur 11 Sudeste 0 -- -- 98
2019-11-21 22:00:00 0.7 3 Nordeste 6 Norte 0 -- -- 97
2019-11-21 21:00:00 0.2 0 Calma 8 Noroeste 0 -- -- 96
2019-11-21 20:00:00 -0.5 4 Norte 7 Norte 0 -- -- 96
2019-11-21 19:00:00 -0.3 3 Norte 9 Norte 0 -- -- 94
2019-11-21 18:00:00 1.5 3 Norte 9 Oeste 0 -- -- 91
2019-11-21 17:00:00 3.8 5 Sudoeste 15 Sur 0 -- -- 90
2019-11-21 16:00:00 4.4 8 Sur 13 Sur 0.2 -- -- 92
2019-11-21 15:00:00 4.8 7 Sur 21 Sudoeste 0.2 -- -- 89
2019-11-21 14:00:00 5.9 9 Sudoeste 26 Sudoeste 0 -- -- 87
2019-11-21 13:00:00 5.4 14 Sudoeste 30 Sudoeste 0 -- -- 94
2019-11-21 12:00:00 3.7 8 Sur 20 Sudoeste 0.2 -- -- 98
2019-11-21 11:00:00 2.9 7 Sur 17 Sudoeste 0.2 -- -- 98
2019-11-21 10:00:00 2.1 9 Sur 19 Sudoeste 0 -- -- 97
2019-11-21 09:00:00 1.7 11 Sur 22 Sur 0 -- -- 97
2019-11-21 08:00:00 -- -- -- -- -- -- -- -- --
2019-11-21 07:00:00 -- -- -- -- -- -- -- -- --
2019-11-21 06:00:00 -- -- -- -- -- -- -- -- --
2019-11-21 05:00:00 -- -- -- -- -- -- -- -- --
2019-11-21 04:00:00 -- -- -- -- -- -- -- -- --
2019-11-21 03:00:00 -- -- -- -- -- -- -- -- --
2019-11-21 02:00:00 -- -- -- -- -- -- -- -- --
2019-11-21 01:00:00 -- -- -- -- -- -- -- -- --
2019-11-21 00:00:00 -- -- -- -- -- -- -- -- --
2019-11-20 23:00:00 -- -- -- -- -- -- -- -- --
2019-11-20 22:00:00 -- -- -- -- -- -- -- -- --
2019-11-20 21:00:00 -- -- -- -- -- -- -- -- --
2019-11-20 20:00:00 -- -- -- -- -- -- -- -- --
2019-11-20 19:00:00 2.9 12 Sur 30 Sudoeste 0.2 -- -- 88
2019-11-20 18:00:00 4.1 14 Sur 22 Sur 0 -- -- 84
2019-11-20 17:00:00 4.9 6 Sur 18 Sur 0 -- -- 79
2019-11-20 16:00:00 5.5 12 Sur 22 Sur 0 -- -- 76
2019-11-20 15:00:00 5.3 8 Sudeste 21 Sur 0 -- -- 75
2019-11-20 14:00:00 5.6 13 Sur 19 Sudoeste 0 -- -- 73
2019-11-20 13:00:00 3.9 7 Sudeste 14 Sur 0 -- -- 81
2019-11-20 12:00:00 2.3 5 Sudeste 14 Sur 0 -- -- 88
2019-11-20 11:00:00 1.7 4 Sur 8 Sur 0 -- -- 88
2019-11-20 10:00:00 -0.2 0 Calma 2 Nordeste 0 -- -- 94
2019-11-20 09:00:00 -1.8 0 Calma 5 Norte 0 -- -- 94
2019-11-20 08:00:00 -2.7 3 Norte 9 Norte 0 -- -- 93
2019-11-20 07:00:00 -3.5 5 Norte 9 Norte 0 -- -- 93
2019-11-20 06:00:00 -3.7 4 Norte 9 Norte 0 -- -- 92
2019-11-20 05:00:00 -3.5 5 Norte 9 Norte 0 -- -- 92
2019-11-20 04:00:00 -3.3 4 Norte 10 Norte 0 -- -- 93
2019-11-20 03:00:00 -3.2 5 Norte 8 Norte 0 -- -- 93
2019-11-20 02:00:00 -2.9 3 Norte 6 Norte 0 -- -- 93
2019-11-20 01:00:00 -2.4 5 Norte 7 Norte 0 -- -- 92
2019-11-20 00:00:00 -1.8 3 Norte 7 Nordeste 0 -- -- 92
2019-11-19 23:00:00 -1.6 2 Noroeste 8 Norte 0 -- -- 93
2019-11-19 22:00:00 -1.1 6 Noroeste 9 Norte 0 -- -- 93
2019-11-19 21:00:00 -0.7 7 Norte 11 Norte 0 -- -- 93
2019-11-19 20:00:00 -0.8 6 Norte 8 Norte 0 -- -- 92
2019-11-19 19:00:00 -0.4 4 Noroeste 9 Norte 0 -- -- 89
2019-11-19 18:00:00 1.2 6 Norte 9 Norte 0 -- -- 86
2019-11-19 17:00:00 4 5 Norte 14 Norte 0 -- -- 74
2019-11-19 16:00:00 6 6 Norte 13 Sur 0 -- -- 64
2019-11-19 15:00:00 7.1 9 Sudeste 17 Sudeste 0 -- -- 57
2019-11-19 14:00:00 7.4 5 Sur 15 Norte 0 -- -- 50
2019-11-19 13:00:00 5.4 9 Norte 15 Noroeste 0 -- -- 50
2019-11-19 12:00:00 4.5 8 Noroeste 14 Noroeste 0 -- -- 59
2019-11-19 11:00:00 3.3 6 Norte 19 Oeste 0 -- -- 68
2019-11-19 10:00:00 2.5 5 Noroeste 11 Sur 0 -- -- 74
2019-11-19 09:00:00 -0.3 4 Noroeste 8 Oeste 0 -- -- 87
2019-11-19 08:00:00 -1.6 3 Noroeste 15 Norte 0 -- -- 85
2019-11-19 07:00:00 -0.9 5 Norte 18 Noroeste 0 -- -- 86
2019-11-19 06:00:00 -1 6 Oeste 30 Norte 0 -- -- 87
2019-11-19 05:00:00 0.1 19 Norte 32 Norte 0 -- -- 84
2019-11-19 04:00:00 -0.3 11 Norte 21 Norte 0 -- -- 87
2019-11-19 03:00:00 -0.1 4 Norte 17 Noroeste 0 -- -- 86
2019-11-19 02:00:00 0.4 5 Norte 16 Noroeste 0 -- -- 88
2019-11-19 01:00:00 0 6 Sur 30 Norte 0 -- -- 87
2019-11-19 00:00:00 0 18 Noroeste 41 Norte 0 -- -- 86
2019-11-18 23:00:00 0.3 20 Norte 44 Norte 0 -- -- 84
2019-11-18 22:00:00 0.4 23 Norte 46 Noroeste 0 -- -- 85
2019-11-18 21:00:00 0.4 27 Norte 46 Norte 0 -- -- 84
2019-11-18 20:00:00 0.4 28 Norte 51 Noroeste 0 -- -- 84
2019-11-18 19:00:00 0.5 34 Norte 54 Norte 0 -- -- 85
2019-11-18 18:00:00 0.5 22 Norte 37 Norte 0 -- -- 90
2019-11-18 17:00:00 1.1 13 Norte 38 Norte 0 -- -- 89
2019-11-18 16:00:00 1.8 20 Norte 38 Norte 0 -- -- 86
2019-11-18 15:00:00 1.9 23 Norte 48 Noroeste 0 -- -- 86
2019-11-18 14:00:00 2.5 24 Norte 59 Norte 0 -- -- 84
2019-11-18 13:00:00 2.5 30 Norte 59 Norte 0 -- -- 84
2019-11-18 12:00:00 1.4 31 Norte 57 Norte 0 -- -- 85
2019-11-18 11:00:00 1.6 24 Norte 48 Norte 0.2 -- -- 88
2019-11-18 10:00:00 0.6 18 Norte 46 Nordeste 0 -- -- 89
2019-11-18 09:00:00 0.6 24 Norte 53 Norte 0 -- -- 87
2019-11-18 08:00:00 0.3 15 Norte 44 Norte 0 -- -- 88
2019-11-18 07:00:00 0.3 25 Norte 46 Norte 0 -- -- 89
2019-11-18 06:00:00 0.4 0 Calma 22 Norte 0 -- -- 93
2019-11-18 05:00:00 0.5 16 Norte 34 Nordeste 0.2 -- -- 92
2019-11-18 04:00:00 0.6 8 Norte 22 Norte 0 -- -- 94
2019-11-18 03:00:00 0.8 7 Norte 32 Norte 0.4 -- -- 94
2019-11-18 02:00:00 0.9 10 Norte 30 Norte 0.6 -- -- 94
2019-11-18 01:00:00 1 14 Norte 25 Norte 0 -- -- 94
2019-11-18 00:00:00 0.5 4 Noroeste 9 Oeste 0 -- -- 96
2019-11-17 23:00:00 -0.2 3 Este 6 Sudoeste 0 -- -- 96
2019-11-17 22:00:00 -0.5 5 Norte 10 Noroeste 0 -- -- 95
2019-11-17 21:00:00 0.1 3 Sudoeste 7 Sudoeste 0 -- -- 93
2019-11-17 20:00:00 1.6 0 Calma 19 Noroeste 0.4 -- -- 91
2019-11-17 19:00:00 2.1 17 Norte 29 Norte 0.8 -- -- 89
2019-11-17 18:00:00 3.6 5 Noroeste 10 Noroeste 0 -- -- 89
2019-11-17 17:00:00 4.8 0 Calma 10 Oeste 0 -- -- 88
2019-11-17 16:00:00 4.6 7 Oeste 14 Noroeste 0.6 -- -- 88
2019-11-17 15:00:00 4.5 10 Oeste 23 Oeste 0 -- -- 83
2019-11-17 14:00:00 4.2 12 Oeste 32 Oeste 0.2 -- -- 85
2019-11-17 13:00:00 5.6 14 Oeste 32 Oeste 0 -- -- 77
2019-11-17 12:00:00 5.3 21 Oeste 31 Oeste 0 -- -- 76
2019-11-17 11:00:00 2.6 5 Sur 17 Sudeste 0 -- -- 89
2019-11-17 10:00:00 0.6 8 Sur 14 Sur 0 -- -- 94
2019-11-17 09:00:00 -0.5 3 Sur 6 Sur 0 -- -- 94
2019-11-17 08:00:00 -1 2 Sur 10 Sur 0 -- -- 91
2019-11-17 07:00:00 -0.7 2 Sudoeste 6 Noroeste 0 -- -- 90
2019-11-17 06:00:00 -0.6 0 Calma 7 Sudeste 0 -- -- 88
2019-11-17 05:00:00 -0.8 0 Calma 4 Sudeste 0 -- -- 87
2019-11-17 04:00:00 -1.1 0 Calma 7 Sur 0 -- -- 87
2019-11-17 03:00:00 -1.3 4 Sur 9 Sudeste 0 -- -- 87
2019-11-17 02:00:00 -1.2 0 Calma 11 Sudeste 0 -- -- 85
2019-11-17 01:00:00 -1.1 0 Calma 6 Noroeste 0 -- -- 83
2019-11-17 00:00:00 -0.8 4 Oeste 12 Sudeste 0 -- -- 78
2019-11-16 23:00:00 -0.3 4 Oeste 19 Sudoeste 0 -- -- 71
2019-11-16 22:00:00 -0.1 6 Sudoeste 13 Sudeste 0 -- -- 79
2019-11-16 21:00:00 1.2 4 Sudeste 13 Este 0 -- -- 77
2019-11-16 20:00:00 1 2 Norte 14 Sur 0 -- -- 81
2019-11-16 19:00:00 1.1 7 Sur 18 Sudeste 0 -- -- 80
2019-11-16 18:00:00 1.7 11 Sur 21 Sur 0 -- -- 76
2019-11-16 17:00:00 2.6 7 Sur 20 Norte 0 -- -- 73
2019-11-16 16:00:00 3.2 5 Sudoeste 19 Este 0 -- -- 71
2019-11-16 15:00:00 3.9 8 Sur 21 Sur 0 -- -- 70
2019-11-16 14:00:00 2.6 10 Sudoeste 18 Sudoeste 0 -- -- 81
2019-11-16 13:00:00 1 6 Sudeste 12 Sudeste 0 -- -- 83
2019-11-16 12:00:00 0.3 6 Sudeste 13 Sur 0 -- -- 85
2019-11-16 11:00:00 0.1 9 Sur 14 Sudeste 0 -- -- 79
2019-11-16 10:00:00 -0.6 9 Noroeste 14 Norte 0 -- -- 81
2019-11-16 09:00:00 -1.1 7 Noroeste 17 Noroeste 0 -- -- 83
2019-11-16 08:00:00 -2.6 2 Nordeste 14 Norte 0 -- -- 86
2019-11-16 07:00:00 -4.2 5 Norte 10 Noroeste 0 -- -- 91
2019-11-16 06:00:00 -3.7 4 Sur 19 Norte 0 -- -- 88
2019-11-16 05:00:00 -2.4 17 Noroeste 30 Noroeste 0 -- -- 86
2019-11-16 04:00:00 -2.3 13 Norte 23 Noroeste 0 -- -- 86
2019-11-16 03:00:00 -1.7 14 Norte 30 Norte 0 -- -- 84
2019-11-16 02:00:00 -1.5 17 Norte 26 Norte 0 -- -- 88
2019-11-16 01:00:00 -1.4 8 Norte 24 Norte 0 -- -- 89
2019-11-16 00:00:00 -1.3 11 Norte 19 Noroeste 0 -- -- 90